sensor_id;sensor_type;location;lat;lon;timestamp;temperature;humidity
65568;DHT22;52211;50.154;8.682;2023-04-15T00:01:51;9.90;50.10
65568;DHT22;52211;50.154;8.682;2023-04-15T00:04:18;9.90;50.10
65568;DHT22;52211;50.154;8.682;2023-04-15T00:06:50;9.90;50.20
65568;DHT22;52211;50.154;8.682;2023-04-15T00:09:19;9.80;50.50
65568;DHT22;52211;50.154;8.682;2023-04-15T00:11:46;9.80;50.40
65568;DHT22;52211;50.154;8.682;2023-04-15T00:14:18;9.80;50.50
65568;DHT22;52211;50.154;8.682;2023-04-15T00:16:50;9.80;50.60
65568;DHT22;52211;50.154;8.682;2023-04-15T00:19:24;9.70;50.50
65568;DHT22;52211;50.154;8.682;2023-04-15T00:21:53;9.70;50.70
65568;DHT22;52211;50.154;8.682;2023-04-15T00:24:21;9.70;50.60
65568;DHT22;52211;50.154;8.682;2023-04-15T00:26:51;9.70;50.70
65568;DHT22;52211;50.154;8.682;2023-04-15T00:29:18;9.60;50.90
65568;DHT22;52211;50.154;8.682;2023-04-15T00:31:45;9.70;50.80
65568;DHT22;52211;50.154;8.682;2023-04-15T00:34:17;9.60;50.80
65568;DHT22;52211;50.154;8.682;2023-04-15T00:36:52;9.60;51.10
65568;DHT22;52211;50.154;8.682;2023-04-15T00:39:19;9.60;51.00
65568;DHT22;52211;50.154;8.682;2023-04-15T00:41:48;9.60;51.00
65568;DHT22;52211;50.154;8.682;2023-04-15T00:44:15;9.60;51.00
65568;DHT22;52211;50.154;8.682;2023-04-15T00:46:44;9.60;51.00
65568;DHT22;52211;50.154;8.682;2023-04-15T00:49:15;9.60;51.20
65568;DHT22;52211;50.154;8.682;2023-04-15T00:51:43;9.60;51.40
65568;DHT22;52211;50.154;8.682;2023-04-15T00:54:13;9.60;51.20
65568;DHT22;52211;50.154;8.682;2023-04-15T00:56:50;9.50;51.40
65568;DHT22;52211;50.154;8.682;2023-04-15T00:59:20;9.50;51.30
65568;DHT22;52211;50.154;8.682;2023-04-15T01:01:49;9.50;51.30
65568;DHT22;52211;50.154;8.682;2023-04-15T01:04:17;9.40;51.40
65568;DHT22;52211;50.154;8.682;2023-04-15T01:06:47;9.40;51.40
65568;DHT22;52211;50.154;8.682;2023-04-15T01:09:16;9.40;51.40
65568;DHT22;52211;50.154;8.682;2023-04-15T01:11:46;9.40;51.50
65568;DHT22;52211;50.154;8.682;2023-04-15T01:14:15;9.40;51.70
65568;DHT22;52211;50.154;8.682;2023-04-15T01:16:45;9.30;51.60
65568;DHT22;52211;50.154;8.682;2023-04-15T01:19:13;9.30;51.90
65568;DHT22;52211;50.154;8.682;2023-04-15T01:21:48;9.30;51.80
65568;DHT22;52211;50.154;8.682;2023-04-15T01:24:18;9.20;51.90
65568;DHT22;52211;50.154;8.682;2023-04-15T01:26:45;9.20;51.90
65568;DHT22;52211;50.154;8.682;2023-04-15T01:29:17;9.20;51.90
65568;DHT22;52211;50.154;8.682;2023-04-15T01:31:53;9.20;52.20
65568;DHT22;52211;50.154;8.682;2023-04-15T01:34:25;9.10;52.30
65568;DHT22;52211;50.154;8.682;2023-04-15T01:36:53;9.10;52.00
65568;DHT22;52211;50.154;8.682;2023-04-15T01:39:20;9.10;52.00
65568;DHT22;52211;50.154;8.682;2023-04-15T01:41:50;9.10;52.10
65568;DHT22;52211;50.154;8.682;2023-04-15T01:44:23;9.10;52.30
65568;DHT22;52211;50.154;8.682;2023-04-15T01:46:53;9.10;52.10
65568;DHT22;52211;50.154;8.682;2023-04-15T01:49:22;9.00;52.10
65568;DHT22;52211;50.154;8.682;2023-04-15T01:51:49;9.00;52.20
65568;DHT22;52211;50.154;8.682;2023-04-15T01:54:16;9.00;52.20
65568;DHT22;52211;50.154;8.682;2023-04-15T01:56:43;9.00;52.30
65568;DHT22;52211;50.154;8.682;2023-04-15T01:59:12;8.90;52.30
65568;DHT22;52211;50.154;8.682;2023-04-15T02:01:39;8.90;52.40
65568;DHT22;52211;50.154;8.682;2023-04-15T02:04:10;9.00;52.50
65568;DHT22;52211;50.154;8.682;2023-04-15T02:06:43;8.90;52.50
65568;DHT22;52211;50.154;8.682;2023-04-15T02:09:15;8.90;52.50
65568;DHT22;52211;50.154;8.682;2023-04-15T02:11:47;8.90;52.50
65568;DHT22;52211;50.154;8.682;2023-04-15T02:14:16;8.90;52.50
65568;DHT22;52211;50.154;8.682;2023-04-15T02:16:45;8.90;52.70
65568;DHT22;52211;50.154;8.682;2023-04-15T02:19:20;8.90;52.60
65568;DHT22;52211;50.154;8.682;2023-04-15T02:21:50;9.00;52.90
65568;DHT22;52211;50.154;8.682;2023-04-15T02:24:19;8.90;52.80
65568;DHT22;52211;50.154;8.682;2023-04-15T02:26:46;8.90;52.70
65568;DHT22;52211;50.154;8.682;2023-04-15T02:29:15;8.90;52.70
65568;DHT22;52211;50.154;8.682;2023-04-15T02:31:44;8.90;52.70
65568;DHT22;52211;50.154;8.682;2023-04-15T02:34:18;8.90;52.70
65568;DHT22;52211;50.154;8.682;2023-04-15T02:36:45;8.80;52.70
65568;DHT22;52211;50.154;8.682;2023-04-15T02:39:16;8.90;52.80
65568;DHT22;52211;50.154;8.682;2023-04-15T02:41:46;8.80;52.70
65568;DHT22;52211;50.154;8.682;2023-04-15T02:44:18;8.80;52.70
65568;DHT22;52211;50.154;8.682;2023-04-15T02:46:54;8.80;52.80
65568;DHT22;52211;50.154;8.682;2023-04-15T02:49:21;8.80;52.90
65568;DHT22;52211;50.154;8.682;2023-04-15T02:51:48;8.70;52.90
65568;DHT22;52211;50.154;8.682;2023-04-15T02:54:18;8.70;52.90
65568;DHT22;52211;50.154;8.682;2023-04-15T02:56:51;8.70;52.90
65568;DHT22;52211;50.154;8.682;2023-04-15T02:59:21;8.70;53.00
65568;DHT22;52211;50.154;8.682;2023-04-15T03:01:48;8.70;53.10
65568;DHT22;52211;50.154;8.682;2023-04-15T03:04:18;8.70;53.20
65568;DHT22;52211;50.154;8.682;2023-04-15T03:06:47;8.70;53.20
65568;DHT22;52211;50.154;8.682;2023-04-15T03:09:13;8.70;53.20
65568;DHT22;52211;50.154;8.682;2023-04-15T03:11:41;8.60;53.10
65568;DHT22;52211;50.154;8.682;2023-04-15T03:14:10;8.60;53.20
65568;DHT22;52211;50.154;8.682;2023-04-15T03:16:41;8.70;53.30
65568;DHT22;52211;50.154;8.682;2023-04-15T03:19:08;8.60;53.30
65568;DHT22;52211;50.154;8.682;2023-04-15T03:21:38;8.60;53.40
65568;DHT22;52211;50.154;8.682;2023-04-15T03:24:07;8.60;53.40
65568;DHT22;52211;50.154;8.682;2023-04-15T03:26:36;8.60;53.40
65568;DHT22;52211;50.154;8.682;2023-04-15T03:29:09;8.50;53.40
65568;DHT22;52211;50.154;8.682;2023-04-15T03:31:38;8.60;54.20
65568;DHT22;52211;50.154;8.682;2023-04-15T03:34:05;8.50;53.60
65568;DHT22;52211;50.154;8.682;2023-04-15T03:36:32;8.50;53.60
65568;DHT22;52211;50.154;8.682;2023-04-15T03:38:59;8.50;53.70
65568;DHT22;52211;50.154;8.682;2023-04-15T03:41:27;8.50;53.70
65568;DHT22;52211;50.154;8.682;2023-04-15T03:44:00;8.50;53.70
65568;DHT22;52211;50.154;8.682;2023-04-15T03:46:29;8.50;53.70
65568;DHT22;52211;50.154;8.682;2023-04-15T03:48:56;8.50;53.80
65568;DHT22;52211;50.154;8.682;2023-04-15T03:51:25;8.40;53.70
65568;DHT22;52211;50.154;8.682;2023-04-15T03:53:52;8.40;53.90
65568;DHT22;52211;50.154;8.682;2023-04-15T03:56:23;8.40;53.80
65568;DHT22;52211;50.154;8.682;2023-04-15T03:58:53;8.40;54.00
65568;DHT22;52211;50.154;8.682;2023-04-15T04:01:22;8.30;53.80
65568;DHT22;52211;50.154;8.682;2023-04-15T04:03:53;8.30;53.80
65568;DHT22;52211;50.154;8.682;2023-04-15T04:06:23;8.30;54.00
65568;DHT22;52211;50.154;8.682;2023-04-15T04:08:50;8.30;54.10
65568;DHT22;52211;50.154;8.682;2023-04-15T04:11:23;8.30;54.00
65568;DHT22;52211;50.154;8.682;2023-04-15T04:13:58;8.30;54.20
65568;DHT22;52211;50.154;8.682;2023-04-15T04:16:32;8.30;54.20
65568;DHT22;52211;50.154;8.682;2023-04-15T04:18:59;8.30;54.20
65568;DHT22;52211;50.154;8.682;2023-04-15T04:21:31;8.30;54.10
65568;DHT22;52211;50.154;8.682;2023-04-15T04:23:59;8.20;54.20
65568;DHT22;52211;50.154;8.682;2023-04-15T04:26:26;8.20;54.10
65568;DHT22;52211;50.154;8.682;2023-04-15T04:28:53;8.30;54.20
65568;DHT22;52211;50.154;8.682;2023-04-15T04:31:22;8.30;54.20
65568;DHT22;52211;50.154;8.682;2023-04-15T04:33:49;8.30;54.30
65568;DHT22;52211;50.154;8.682;2023-04-15T04:36:16;8.30;54.40
65568;DHT22;52211;50.154;8.682;2023-04-15T04:38:46;8.30;54.40
65568;DHT22;52211;50.154;8.682;2023-04-15T04:41:15;8.30;54.50
65568;DHT22;52211;50.154;8.682;2023-04-15T04:43:45;8.30;54.70
65568;DHT22;52211;50.154;8.682;2023-04-15T04:46:13;8.30;54.60
65568;DHT22;52211;50.154;8.682;2023-04-15T04:48:43;8.30;54.50
65568;DHT22;52211;50.154;8.682;2023-04-15T04:51:12;8.30;54.50
65568;DHT22;52211;50.154;8.682;2023-04-15T04:53:42;8.30;54.60
65568;DHT22;52211;50.154;8.682;2023-04-15T04:56:11;8.30;54.60
65568;DHT22;52211;50.154;8.682;2023-04-15T04:58:38;8.30;54.50
65568;DHT22;52211;50.154;8.682;2023-04-15T05:01:07;8.40;54.60
65568;DHT22;52211;50.154;8.682;2023-04-15T05:03:41;8.40;54.60
65568;DHT22;52211;50.154;8.682;2023-04-15T05:06:09;8.40;54.70
65568;DHT22;52211;50.154;8.682;2023-04-15T05:08:38;8.40;54.60
65568;DHT22;52211;50.154;8.682;2023-04-15T05:11:10;8.40;54.60
65568;DHT22;52211;50.154;8.682;2023-04-15T05:13:39;8.40;54.60
65568;DHT22;52211;50.154;8.682;2023-04-15T05:16:11;8.40;54.70
65568;DHT22;52211;50.154;8.682;2023-04-15T05:18:40;8.40;54.90
65568;DHT22;52211;50.154;8.682;2023-04-15T05:21:09;8.50;54.80
65568;DHT22;52211;50.154;8.682;2023-04-15T05:23:37;8.50;54.90
65568;DHT22;52211;50.154;8.682;2023-04-15T05:26:03;8.50;55.00
65568;DHT22;52211;50.154;8.682;2023-04-15T05:28:37;8.50;55.00
65568;DHT22;52211;50.154;8.682;2023-04-15T05:31:07;8.60;55.20
65568;DHT22;52211;50.154;8.682;2023-04-15T05:33:34;8.60;55.10
65568;DHT22;52211;50.154;8.682;2023-04-15T05:36:02;8.70;55.10
65568;DHT22;52211;50.154;8.682;2023-04-15T05:38:29;8.70;55.10
65568;DHT22;52211;50.154;8.682;2023-04-15T05:40:56;8.70;55.70
65568;DHT22;52211;50.154;8.682;2023-04-15T05:43:23;8.70;55.70
65568;DHT22;52211;50.154;8.682;2023-04-15T05:45:50;8.80;55.10
65568;DHT22;52211;50.154;8.682;2023-04-15T05:48:17;8.80;55.00
65568;DHT22;52211;50.154;8.682;2023-04-15T05:50:50;8.90;55.20
65568;DHT22;52211;50.154;8.682;2023-04-15T05:53:20;8.90;55.20
65568;DHT22;52211;50.154;8.682;2023-04-15T05:55:47;8.90;55.30
65568;DHT22;52211;50.154;8.682;2023-04-15T05:58:17;9.00;55.40
65568;DHT22;52211;50.154;8.682;2023-04-15T06:00:46;9.10;55.50
65568;DHT22;52211;50.154;8.682;2023-04-15T06:03:13;9.10;55.50
65568;DHT22;52211;50.154;8.682;2023-04-15T06:05:45;9.20;55.40
65568;DHT22;52211;50.154;8.682;2023-04-15T06:08:17;9.20;55.50
65568;DHT22;52211;50.154;8.682;2023-04-15T06:10:44;9.30;55.60
65568;DHT22;52211;50.154;8.682;2023-04-15T06:13:16;9.30;55.50
65568;DHT22;52211;50.154;8.682;2023-04-15T06:15:43;9.40;55.50
65568;DHT22;52211;50.154;8.682;2023-04-15T06:18:15;9.40;55.50
65568;DHT22;52211;50.154;8.682;2023-04-15T06:20:45;9.50;55.50
65568;DHT22;52211;50.154;8.682;2023-04-15T06:23:17;9.50;55.50
65568;DHT22;52211;50.154;8.682;2023-04-15T06:25:49;9.60;55.50
65568;DHT22;52211;50.154;8.682;2023-04-15T06:28:18;9.70;55.70
65568;DHT22;52211;50.154;8.682;2023-04-15T06:30:45;9.70;55.60
65568;DHT22;52211;50.154;8.682;2023-04-15T06:33:14;9.80;55.60
65568;DHT22;52211;50.154;8.682;2023-04-15T06:35:45;9.90;55.70
65568;DHT22;52211;50.154;8.682;2023-04-15T06:38:17;10.00;55.60
65568;DHT22;52211;50.154;8.682;2023-04-15T06:40:49;10.00;55.60
65568;DHT22;52211;50.154;8.682;2023-04-15T06:43:18;10.10;55.90
65568;DHT22;52211;50.154;8.682;2023-04-15T06:45:45;10.20;55.60
65568;DHT22;52211;50.154;8.682;2023-04-15T06:48:15;10.20;55.70
65568;DHT22;52211;50.154;8.682;2023-04-15T06:50:46;10.30;55.80
65568;DHT22;52211;50.154;8.682;2023-04-15T06:53:17;10.40;55.90
65568;DHT22;52211;50.154;8.682;2023-04-15T06:55:44;10.50;55.80
65568;DHT22;52211;50.154;8.682;2023-04-15T06:58:11;10.50;55.80
65568;DHT22;52211;50.154;8.682;2023-04-15T07:00:38;10.60;55.70
65568;DHT22;52211;50.154;8.682;2023-04-15T07:03:07;10.60;55.60
65568;DHT22;52211;50.154;8.682;2023-04-15T07:05:39;10.70;55.70
65568;DHT22;52211;50.154;8.682;2023-04-15T07:08:06;10.80;55.80
65568;DHT22;52211;50.154;8.682;2023-04-15T07:10:38;10.90;55.70
65568;DHT22;52211;50.154;8.682;2023-04-15T07:13:07;11.00;55.90
65568;DHT22;52211;50.154;8.682;2023-04-15T07:15:36;11.00;55.90
65568;DHT22;52211;50.154;8.682;2023-04-15T07:18:03;11.10;55.80
65568;DHT22;52211;50.154;8.682;2023-04-15T07:20:30;11.20;55.80
65568;DHT22;52211;50.154;8.682;2023-04-15T07:23:04;11.30;55.80
65568;DHT22;52211;50.154;8.682;2023-04-15T07:25:33;11.30;55.70
65568;DHT22;52211;50.154;8.682;2023-04-15T07:28:02;11.40;55.80
65568;DHT22;52211;50.154;8.682;2023-04-15T07:30:32;11.50;55.70
65568;DHT22;52211;50.154;8.682;2023-04-15T07:33:01;11.50;55.80
65568;DHT22;52211;50.154;8.682;2023-04-15T07:35:31;11.60;55.70
65568;DHT22;52211;50.154;8.682;2023-04-15T07:38:00;11.70;55.80
65568;DHT22;52211;50.154;8.682;2023-04-15T07:40:29;11.70;55.70
65568;DHT22;52211;50.154;8.682;2023-04-15T07:42:58;11.80;55.80
65568;DHT22;52211;50.154;8.682;2023-04-15T07:45:30;11.80;55.80
65568;DHT22;52211;50.154;8.682;2023-04-15T07:47:59;11.90;55.90
65568;DHT22;52211;50.154;8.682;2023-04-15T07:50:30;12.00;55.80
65568;DHT22;52211;50.154;8.682;2023-04-15T07:53:02;12.00;55.70
65568;DHT22;52211;50.154;8.682;2023-04-15T07:55:29;12.10;55.80
65568;DHT22;52211;50.154;8.682;2023-04-15T07:57:58;12.20;55.80
65568;DHT22;52211;50.154;8.682;2023-04-15T08:00:28;12.30;56.50
65568;DHT22;52211;50.154;8.682;2023-04-15T08:02:59;12.40;56.50
65568;DHT22;52211;50.154;8.682;2023-04-15T08:05:27;12.50;55.90
65568;DHT22;52211;50.154;8.682;2023-04-15T08:07:56;12.50;55.90
65568;DHT22;52211;50.154;8.682;2023-04-15T08:10:24;12.60;55.80
65568;DHT22;52211;50.154;8.682;2023-04-15T08:12:53;12.70;55.80
65568;DHT22;52211;50.154;8.682;2023-04-15T08:15:25;12.80;55.70
65568;DHT22;52211;50.154;8.682;2023-04-15T08:17:54;12.90;55.60
65568;DHT22;52211;50.154;8.682;2023-04-15T08:20:23;13.00;55.70
65568;DHT22;52211;50.154;8.682;2023-04-15T08:22:50;13.00;55.60
65568;DHT22;52211;50.154;8.682;2023-04-15T08:25:20;13.10;55.60
65568;DHT22;52211;50.154;8.682;2023-04-15T08:27:48;13.20;55.60
65568;DHT22;52211;50.154;8.682;2023-04-15T08:30:16;13.30;55.50
65568;DHT22;52211;50.154;8.682;2023-04-15T08:32:45;13.40;55.30
65568;DHT22;52211;50.154;8.682;2023-04-15T08:35:14;13.40;55.00
65568;DHT22;52211;50.154;8.682;2023-04-15T08:37:41;13.50;54.80
65568;DHT22;52211;50.154;8.682;2023-04-15T08:40:11;13.60;54.80
65568;DHT22;52211;50.154;8.682;2023-04-15T08:42:49;13.60;54.60
65568;DHT22;52211;50.154;8.682;2023-04-15T08:45:23;13.70;54.40
65568;DHT22;52211;50.154;8.682;2023-04-15T08:47:55;13.70;54.40
65568;DHT22;52211;50.154;8.682;2023-04-15T08:50:28;13.80;54.40
65568;DHT22;52211;50.154;8.682;2023-04-15T08:52:58;13.90;55.00
65568;DHT22;52211;50.154;8.682;2023-04-15T08:55:32;14.00;54.30
65568;DHT22;52211;50.154;8.682;2023-04-15T08:58:02;14.00;54.20
65568;DHT22;52211;50.154;8.682;2023-04-15T09:00:31;14.10;54.10
65568;DHT22;52211;50.154;8.682;2023-04-15T09:03:03;14.20;54.10
65568;DHT22;52211;50.154;8.682;2023-04-15T09:05:35;14.20;53.90
65568;DHT22;52211;50.154;8.682;2023-04-15T09:08:05;14.30;54.00
65568;DHT22;52211;50.154;8.682;2023-04-15T09:10:37;14.40;53.70
65568;DHT22;52211;50.154;8.682;2023-04-15T09:13:03;14.40;53.70
65568;DHT22;52211;50.154;8.682;2023-04-15T09:15:34;14.50;53.60
65568;DHT22;52211;50.154;8.682;2023-04-15T09:18:12;14.60;53.50
65568;DHT22;52211;50.154;8.682;2023-04-15T09:20:42;14.60;54.30
65568;DHT22;52211;50.154;8.682;2023-04-15T09:23:12;14.70;53.50
65568;DHT22;52211;50.154;8.682;2023-04-15T09:25:41;14.80;53.50
65568;DHT22;52211;50.154;8.682;2023-04-15T09:28:12;14.80;53.40
65568;DHT22;52211;50.154;8.682;2023-04-15T09:30:42;14.90;53.40
65568;DHT22;52211;50.154;8.682;2023-04-15T09:33:16;15.00;53.10
65568;DHT22;52211;50.154;8.682;2023-04-15T09:36:01;15.00;53.00
65568;DHT22;52211;50.154;8.682;2023-04-15T09:38:33;15.00;52.60
65568;DHT22;52211;50.154;8.682;2023-04-15T09:41:00;15.10;52.80
65568;DHT22;52211;50.154;8.682;2023-04-15T09:43:38;15.10;52.70
65568;DHT22;52211;50.154;8.682;2023-04-15T09:46:08;15.10;52.40
65568;DHT22;52211;50.154;8.682;2023-04-15T09:48:35;15.10;52.50
65568;DHT22;52211;50.154;8.682;2023-04-15T09:51:02;15.00;52.30
65568;DHT22;52211;50.154;8.682;2023-04-15T09:53:34;15.10;52.30
65568;DHT22;52211;50.154;8.682;2023-04-15T09:56:02;15.10;52.20
65568;DHT22;52211;50.154;8.682;2023-04-15T09:58:33;15.00;52.20
65568;DHT22;52211;50.154;8.682;2023-04-15T10:01:09;15.00;52.10
65568;DHT22;52211;50.154;8.682;2023-04-15T10:03:37;15.00;52.00
65568;DHT22;52211;50.154;8.682;2023-04-15T10:06:08;15.00;52.00
65568;DHT22;52211;50.154;8.682;2023-04-15T10:08:36;15.00;52.00
65568;DHT22;52211;50.154;8.682;2023-04-15T10:11:05;14.90;52.00
65568;DHT22;52211;50.154;8.682;2023-04-15T10:13:36;14.90;52.00
65568;DHT22;52211;50.154;8.682;2023-04-15T10:16:10;14.90;52.00
65568;DHT22;52211;50.154;8.682;2023-04-15T10:18:46;14.90;51.90
65568;DHT22;52211;50.154;8.682;2023-04-15T10:21:22;14.80;51.80
65568;DHT22;52211;50.154;8.682;2023-04-15T10:23:50;14.90;52.00
65568;DHT22;52211;50.154;8.682;2023-04-15T10:26:17;14.90;52.00
65568;DHT22;52211;50.154;8.682;2023-04-15T10:28:45;14.90;52.00
65568;DHT22;52211;50.154;8.682;2023-04-15T10:31:16;14.90;52.00
65568;DHT22;52211;50.154;8.682;2023-04-15T10:33:49;15.00;52.10
65568;DHT22;52211;50.154;8.682;2023-04-15T10:36:19;15.00;52.10
65568;DHT22;52211;50.154;8.682;2023-04-15T10:38:52;15.00;52.00
65568;DHT22;52211;50.154;8.682;2023-04-15T10:41:27;15.00;52.00
65568;DHT22;52211;50.154;8.682;2023-04-15T10:44:05;15.10;52.00
65568;DHT22;52211;50.154;8.682;2023-04-15T10:46:39;15.10;52.00
65568;DHT22;52211;50.154;8.682;2023-04-15T10:49:13;15.20;52.00
65568;DHT22;52211;50.154;8.682;2023-04-15T10:51:42;15.30;52.00
65568;DHT22;52211;50.154;8.682;2023-04-15T10:54:32;15.30;51.80
65568;DHT22;52211;50.154;8.682;2023-04-15T10:59:36;15.40;51.70
65568;DHT22;52211;50.154;8.682;2023-04-15T11:08:12;15.40;51.50
65568;DHT22;52211;50.154;8.682;2023-04-15T11:15:36;15.40;51.50
65568;DHT22;52211;50.154;8.682;2023-04-15T11:20:39;15.50;51.70
65568;DHT22;52211;50.154;8.682;2023-04-15T11:23:11;15.60;51.90
65568;DHT22;52211;50.154;8.682;2023-04-15T11:25:42;15.60;52.00
65568;DHT22;52211;50.154;8.682;2023-04-15T11:28:11;15.60;52.30
65568;DHT22;52211;50.154;8.682;2023-04-15T11:30:41;15.70;52.40
65568;DHT22;52211;50.154;8.682;2023-04-15T11:33:13;15.70;52.50
65568;DHT22;52211;50.154;8.682;2023-04-15T11:35:43;15.70;52.40
65568;DHT22;52211;50.154;8.682;2023-04-15T11:38:14;15.70;52.60
65568;DHT22;52211;50.154;8.682;2023-04-15T11:40:42;15.70;52.80
65568;DHT22;52211;50.154;8.682;2023-04-15T11:43:18;15.60;52.80
65568;DHT22;52211;50.154;8.682;2023-04-15T11:46:00;15.60;53.10
65568;DHT22;52211;50.154;8.682;2023-04-15T11:48:34;15.60;53.10
65568;DHT22;52211;50.154;8.682;2023-04-15T11:51:05;15.60;53.10
65568;DHT22;52211;50.154;8.682;2023-04-15T11:53:46;15.60;53.30
65568;DHT22;52211;50.154;8.682;2023-04-15T11:56:19;15.50;53.50
65568;DHT22;52211;50.154;8.682;2023-04-15T11:58:55;15.40;53.50
65568;DHT22;52211;50.154;8.682;2023-04-15T12:01:34;15.40;53.40
65568;DHT22;52211;50.154;8.682;2023-04-15T12:04:17;15.30;53.80
65568;DHT22;52211;50.154;8.682;2023-04-15T12:06:51;15.30;54.40
65568;DHT22;52211;50.154;8.682;2023-04-15T12:09:18;15.20;53.60
65568;DHT22;52211;50.154;8.682;2023-04-15T12:11:48;15.10;53.70
65568;DHT22;52211;50.154;8.682;2023-04-15T12:14:31;15.00;54.00
65568;DHT22;52211;50.154;8.682;2023-04-15T12:17:00;14.90;54.30
65568;DHT22;52211;50.154;8.682;2023-04-15T12:19:37;14.90;54.40
65568;DHT22;52211;50.154;8.682;2023-04-15T12:22:12;14.80;54.80
65568;DHT22;52211;50.154;8.682;2023-04-15T12:24:43;14.80;54.70
65568;DHT22;52211;50.154;8.682;2023-04-15T12:27:15;14.70;54.80
65568;DHT22;52211;50.154;8.682;2023-04-15T12:29:44;14.70;55.10
65568;DHT22;52211;50.154;8.682;2023-04-15T12:34:53;14.70;55.30
65568;DHT22;52211;50.154;8.682;2023-04-15T12:37:20;14.60;55.80
65568;DHT22;52211;50.154;8.682;2023-04-15T12:39:51;14.60;55.40
65568;DHT22;52211;50.154;8.682;2023-04-15T12:42:22;14.60;55.40
65568;DHT22;52211;50.154;8.682;2023-04-15T12:44:49;14.50;55.30
65568;DHT22;52211;50.154;8.682;2023-04-15T12:47:18;14.50;55.30
65568;DHT22;52211;50.154;8.682;2023-04-15T12:49:45;14.40;55.70
65568;DHT22;52211;50.154;8.682;2023-04-15T12:52:19;14.30;55.60
65568;DHT22;52211;50.154;8.682;2023-04-15T12:54:48;14.30;55.60
65568;DHT22;52211;50.154;8.682;2023-04-15T12:57:15;14.20;55.70
65568;DHT22;52211;50.154;8.682;2023-04-15T12:59:42;14.10;55.60
65568;DHT22;52211;50.154;8.682;2023-04-15T13:02:11;14.10;55.70
65568;DHT22;52211;50.154;8.682;2023-04-15T13:04:41;14.00;55.70
65568;DHT22;52211;50.154;8.682;2023-04-15T13:07:11;13.90;55.90
65568;DHT22;52211;50.154;8.682;2023-04-15T13:09:45;13.90;55.80
65568;DHT22;52211;50.154;8.682;2023-04-15T13:12:14;13.80;56.00
65568;DHT22;52211;50.154;8.682;2023-04-15T13:14:41;13.70;55.80
65568;DHT22;52211;50.154;8.682;2023-04-15T13:17:11;13.70;56.00
65568;DHT22;52211;50.154;8.682;2023-04-15T13:19:40;13.70;56.20
65568;DHT22;52211;50.154;8.682;2023-04-15T13:22:07;13.70;56.30
65568;DHT22;52211;50.154;8.682;2023-04-15T13:24:36;13.70;56.40
65568;DHT22;52211;50.154;8.682;2023-04-15T13:27:06;13.60;56.60
65568;DHT22;52211;50.154;8.682;2023-04-15T13:29:33;13.60;56.70
65568;DHT22;52211;50.154;8.682;2023-04-15T13:32:00;13.60;56.80
65568;DHT22;52211;50.154;8.682;2023-04-15T13:34:27;13.60;56.70
65568;DHT22;52211;50.154;8.682;2023-04-15T13:36:54;13.60;56.70
65568;DHT22;52211;50.154;8.682;2023-04-15T13:39:28;13.60;56.80
65568;DHT22;52211;50.154;8.682;2023-04-15T13:41:58;13.70;56.90
65568;DHT22;52211;50.154;8.682;2023-04-15T13:44:29;13.60;56.90
65568;DHT22;52211;50.154;8.682;2023-04-15T13:46:56;13.60;57.50
65568;DHT22;52211;50.154;8.682;2023-04-15T13:49:25;13.60;56.90
65568;DHT22;52211;50.154;8.682;2023-04-15T13:51:54;13.60;56.80
65568;DHT22;52211;50.154;8.682;2023-04-15T13:54:24;13.60;56.70
65568;DHT22;52211;50.154;8.682;2023-04-15T13:57:04;13.60;57.00
65568;DHT22;52211;50.154;8.682;2023-04-15T13:59:35;13.60;56.90
65568;DHT22;52211;50.154;8.682;2023-04-15T14:02:05;13.60;57.10
65568;DHT22;52211;50.154;8.682;2023-04-15T14:04:34;13.60;57.00
65568;DHT22;52211;50.154;8.682;2023-04-15T14:07:04;13.60;57.10
65568;DHT22;52211;50.154;8.682;2023-04-15T14:09:36;13.60;57.00
65568;DHT22;52211;50.154;8.682;2023-04-15T14:12:11;13.60;57.00
65568;DHT22;52211;50.154;8.682;2023-04-15T14:14:41;13.60;57.30
65568;DHT22;52211;50.154;8.682;2023-04-15T14:17:10;13.60;57.20
65568;DHT22;52211;50.154;8.682;2023-04-15T14:19:37;13.60;57.30
65568;DHT22;52211;50.154;8.682;2023-04-15T14:22:08;13.60;57.30
65568;DHT22;52211;50.154;8.682;2023-04-15T14:24:37;13.60;57.20
65568;DHT22;52211;50.154;8.682;2023-04-15T14:27:09;13.60;57.30
65568;DHT22;52211;50.154;8.682;2023-04-15T14:29:40;13.60;57.20
65568;DHT22;52211;50.154;8.682;2023-04-15T14:32:11;13.60;57.20
65568;DHT22;52211;50.154;8.682;2023-04-15T14:34:42;13.50;57.20
65568;DHT22;52211;50.154;8.682;2023-04-15T14:37:11;13.50;57.30
65568;DHT22;52211;50.154;8.682;2023-04-15T14:39:43;13.50;57.40
65568;DHT22;52211;50.154;8.682;2023-04-15T14:42:10;13.40;57.50
65568;DHT22;52211;50.154;8.682;2023-04-15T14:44:39;13.50;57.60
65568;DHT22;52211;50.154;8.682;2023-04-15T14:47:06;13.40;57.60
65568;DHT22;52211;50.154;8.682;2023-04-15T14:49:33;13.40;57.60
65568;DHT22;52211;50.154;8.682;2023-04-15T14:52:02;13.40;57.80
65568;DHT22;52211;50.154;8.682;2023-04-15T14:54:32;13.40;57.80
65568;DHT22;52211;50.154;8.682;2023-04-15T14:57:01;13.30;57.70
65568;DHT22;52211;50.154;8.682;2023-04-15T14:59:28;13.30;57.80
65568;DHT22;52211;50.154;8.682;2023-04-15T15:01:55;13.30;57.90
65568;DHT22;52211;50.154;8.682;2023-04-15T15:04:24;13.30;58.00
65568;DHT22;52211;50.154;8.682;2023-04-15T15:06:56;13.20;58.00
65568;DHT22;52211;50.154;8.682;2023-04-15T15:09:23;13.20;58.30
65568;DHT22;52211;50.154;8.682;2023-04-15T15:11:50;13.20;58.20
65568;DHT22;52211;50.154;8.682;2023-04-15T15:14:21;13.20;58.30
65568;DHT22;52211;50.154;8.682;2023-04-15T15:16:48;13.20;58.40
65568;DHT22;52211;50.154;8.682;2023-04-15T15:19:18;13.10;58.30
65568;DHT22;52211;50.154;8.682;2023-04-15T15:21:49;13.20;58.50
65568;DHT22;52211;50.154;8.682;2023-04-15T15:24:16;13.10;58.50
65568;DHT22;52211;50.154;8.682;2023-04-15T15:26:43;13.10;58.50
65568;DHT22;52211;50.154;8.682;2023-04-15T15:29:10;13.10;58.60
65568;DHT22;52211;50.154;8.682;2023-04-15T15:31:44;13.10;58.60
65568;DHT22;52211;50.154;8.682;2023-04-15T15:34:11;13.00;59.40
65568;DHT22;52211;50.154;8.682;2023-04-15T15:36:38;13.00;58.70
65568;DHT22;52211;50.154;8.682;2023-04-15T15:39:05;13.10;58.80
65568;DHT22;52211;50.154;8.682;2023-04-15T15:41:34;13.00;58.90
65568;DHT22;52211;50.154;8.682;2023-04-15T15:44:03;13.00;59.00
65568;DHT22;52211;50.154;8.682;2023-04-15T15:46:32;13.00;59.10
65568;DHT22;52211;50.154;8.682;2023-04-15T15:49:02;13.00;59.10
65568;DHT22;52211;50.154;8.682;2023-04-15T15:51:32;13.00;59.10
65568;DHT22;52211;50.154;8.682;2023-04-15T15:54:01;13.00;59.20
65568;DHT22;52211;50.154;8.682;2023-04-15T15:56:30;13.00;59.30
65568;DHT22;52211;50.154;8.682;2023-04-15T15:59:01;12.90;59.30
65568;DHT22;52211;50.154;8.682;2023-04-15T16:01:28;12.90;59.50
65568;DHT22;52211;50.154;8.682;2023-04-15T16:03:55;13.00;59.40
65568;DHT22;52211;50.154;8.682;2023-04-15T16:06:25;12.90;59.50
65568;DHT22;52211;50.154;8.682;2023-04-15T16:08:52;12.90;59.40
65568;DHT22;52211;50.154;8.682;2023-04-15T16:11:22;12.90;59.50
65568;DHT22;52211;50.154;8.682;2023-04-15T16:13:51;12.90;59.50